Terminal Aerodrome Forecast
Issued by NWS

Home | Current Version | Previous Version | Text Only | Print | Product List | Glossary On
Versions: 1 2 3 4 5 6 7 8 9 10 11 12 13 14 15 16 17 18 19 20
000
FTUS43 KLSX 302300
TAFUIN
TAF
KUIN 302338Z 3100/3124 29005KT P6SM SCT050 BKN250
     FM310100 VRB04KT P6SM SCT250
     FM311000 VRB03KT 3SM BR SCT015
     FM311400 19008KT P6SM SKC=

USA.gov is the U.S. government's official web portal to all federal, state and local government web resources and services.